createdAt,value
2024-01-05T00:01:57.261Z,9.82
2024-01-05T00:04:28.429Z,10.67
2024-01-05T00:06:57.972Z,10.70
2024-01-05T00:09:27.044Z,7.82
2024-01-05T00:11:58.064Z,7.97
2024-01-05T00:14:30.864Z,8.20
2024-01-05T00:17:00.735Z,10.27
2024-01-05T00:20:18.700Z,7.32
2024-01-05T00:23:02.097Z,8.73
2024-01-05T00:25:35.333Z,9.48
2024-01-05T00:28:03.780Z,6.13
2024-01-05T00:30:52.903Z,7.33
2024-01-05T00:33:21.571Z,6.78
2024-01-05T00:35:50.171Z,7.95
2024-01-05T00:38:20.116Z,7.57
2024-01-05T00:40:48.596Z,10.38
2024-01-05T00:43:16.948Z,5.43
2024-01-05T00:45:49.766Z,7.50
2024-01-05T00:48:18.331Z,9.57
2024-01-05T00:51:05.365Z,7.65
2024-01-05T00:53:35.635Z,7.43
2024-01-05T00:56:05.632Z,6.80
2024-01-05T00:58:34.118Z,4.85
2024-01-05T01:01:02.613Z,6.32
2024-01-05T01:03:31.178Z,8.45
2024-01-05T01:05:59.677Z,7.88
2024-01-05T01:08:28.161Z,6.30
2024-01-05T01:10:57.627Z,7.18
2024-01-05T01:13:26.014Z,6.45
2024-01-05T01:15:54.400Z,6.65
2024-01-05T01:18:22.970Z,5.72
2024-01-05T01:20:52.671Z,8.27
2024-01-05T01:23:40.005Z,9.00
2024-01-05T01:26:22.698Z,7.38
2024-01-05T01:28:51.210Z,5.68
2024-01-05T01:31:19.636Z,7.43
2024-01-05T01:33:55.961Z,7.53
2024-01-05T01:36:24.952Z,6.32
2024-01-05T01:38:53.511Z,6.03
2024-01-05T01:41:26.728Z,5.75
2024-01-05T01:43:55.179Z,6.63
2024-01-05T01:46:25.753Z,5.20
2024-01-05T01:48:54.782Z,8.05
2024-01-05T01:51:23.843Z,6.07
2024-01-05T01:54:03.786Z,7.45
2024-01-05T01:56:34.678Z,5.88
2024-01-05T01:59:03.302Z,10.43
2024-01-05T02:01:31.858Z,6.75
2024-01-05T02:04:00.756Z,4.50
2024-01-05T02:06:29.610Z,8.32
2024-01-05T02:09:00.654Z,5.40
2024-01-05T02:11:29.140Z,5.47
2024-01-05T02:13:58.630Z,7.38
2024-01-05T02:16:27.102Z,6.78
2024-01-05T02:18:56.468Z,6.30
2024-01-05T02:21:28.759Z,5.07
2024-01-05T02:24:01.377Z,9.00
2024-01-05T02:26:31.569Z,9.88
2024-01-05T02:28:59.998Z,6.55
2024-01-05T02:31:28.459Z,10.60
2024-01-05T02:33:56.993Z,7.70
2024-01-05T02:36:25.576Z,5.37
2024-01-05T02:38:54.147Z,5.30
2024-01-05T02:41:23.662Z,6.85
2024-01-05T02:43:52.128Z,6.10
2024-01-05T02:46:20.637Z,6.95
2024-01-05T02:48:49.392Z,8.03
2024-01-05T02:51:18.102Z,5.80
2024-01-05T02:53:46.492Z,7.80
2024-01-05T02:56:24.092Z,5.90
2024-01-05T02:58:52.757Z,6.50
2024-01-05T03:01:21.357Z,6.17
2024-01-05T03:03:51.797Z,5.20
2024-01-05T03:06:21.753Z,7.25
2024-01-05T03:08:50.267Z,4.85
2024-01-05T03:11:18.680Z,5.78
2024-01-05T03:13:48.159Z,10.13
2024-01-05T03:16:16.610Z,9.23
2024-01-05T03:18:45.205Z,7.20
2024-01-05T03:21:13.775Z,6.28
2024-01-05T03:23:42.305Z,7.57
2024-01-05T03:26:12.152Z,4.80
2024-01-05T03:28:40.585Z,5.10
2024-01-05T03:31:15.008Z,5.55
2024-01-05T03:33:44.030Z,5.53
2024-01-05T03:36:12.806Z,5.28
2024-01-05T03:38:42.785Z,5.57
2024-01-05T03:41:14.912Z,5.50
2024-01-05T03:43:43.465Z,8.20
2024-01-05T03:46:17.631Z,6.30
2024-01-05T03:48:46.167Z,4.68
2024-01-05T03:51:14.966Z,7.20
2024-01-05T03:53:43.419Z,6.90
2024-01-05T03:56:11.869Z,6.82
2024-01-05T03:58:40.280Z,8.02
2024-01-05T04:01:08.716Z,6.68
2024-01-05T04:03:38.273Z,10.43
2024-01-05T04:06:07.089Z,10.82
2024-01-05T04:08:35.495Z,9.70
2024-01-05T04:11:03.989Z,9.15
2024-01-05T04:13:32.398Z,6.88
2024-01-05T04:16:00.805Z,8.67
2024-01-05T04:18:29.319Z,8.23
2024-01-05T04:20:59.105Z,6.60
2024-01-05T04:23:27.723Z,7.90
2024-01-05T04:25:56.110Z,7.25
2024-01-05T04:28:24.577Z,7.17
2024-01-05T04:30:53.105Z,9.70
2024-01-05T04:33:21.758Z,8.45
2024-01-05T04:35:50.236Z,6.78
2024-01-05T04:38:19.796Z,8.30
2024-01-05T04:40:48.185Z,9.97
2024-01-05T04:43:17.216Z,6.53
2024-01-05T04:45:45.709Z,7.72
2024-01-05T04:48:14.334Z,6.25
2024-01-05T04:50:42.830Z,6.10
2024-01-05T04:53:11.502Z,6.50
2024-01-05T04:55:41.014Z,7.97
2024-01-05T04:58:09.499Z,7.35
2024-01-05T05:00:38.101Z,7.78
2024-01-05T05:03:06.856Z,6.85
2024-01-05T05:05:35.484Z,5.43
2024-01-05T05:08:03.992Z,6.45
2024-01-05T05:10:32.477Z,8.23
2024-01-05T05:13:01.881Z,8.60
2024-01-05T05:15:30.346Z,7.60
2024-01-05T05:17:58.924Z,5.93
2024-01-05T05:20:27.508Z,7.47
2024-01-05T05:22:55.909Z,5.88
2024-01-05T05:25:24.420Z,8.82
2024-01-05T05:27:52.862Z,5.82
2024-01-05T05:30:22.497Z,7.00
2024-01-05T05:32:51.161Z,8.15
2024-01-05T05:35:19.415Z,6.57
2024-01-05T05:37:48.259Z,8.07
2024-01-05T05:40:16.653Z,8.55
2024-01-05T05:42:45.099Z,8.67
2024-01-05T05:45:13.586Z,6.63
2024-01-05T05:47:43.156Z,6.75
2024-01-05T05:52:44.312Z,9.10
2024-01-05T05:55:14.026Z,7.67
2024-01-05T05:57:42.860Z,6.80
2024-01-05T06:00:12.918Z,9.10
2024-01-05T06:02:42.497Z,10.20
2024-01-05T06:05:11.526Z,7.85
2024-01-05T06:07:39.886Z,9.13
2024-01-05T06:10:09.836Z,7.75
2024-01-05T06:12:38.396Z,12.95
2024-01-05T06:15:08.421Z,14.57
2024-01-05T06:17:36.908Z,17.50
2024-01-05T06:20:09.468Z,9.00
2024-01-05T06:22:37.988Z,6.72
2024-01-05T06:25:07.338Z,8.35
2024-01-05T06:27:39.154Z,9.95
2024-01-05T06:30:11.807Z,8.90
2024-01-05T06:32:40.479Z,10.23
2024-01-05T06:35:11.411Z,6.70
2024-01-05T06:37:39.773Z,11.63
2024-01-05T06:40:09.124Z,9.65
2024-01-05T06:42:40.128Z,11.02
2024-01-05T06:45:09.673Z,9.20
2024-01-05T06:47:38.143Z,7.90
2024-01-05T06:50:07.010Z,9.18
2024-01-05T06:52:36.684Z,7.38
2024-01-05T06:55:05.452Z,6.63
2024-01-05T06:57:36.885Z,8.93
2024-01-05T07:00:05.590Z,6.78
2024-01-05T07:02:34.064Z,8.50
2024-01-05T07:05:02.540Z,7.57
2024-01-05T07:07:31.025Z,8.52
2024-01-05T07:10:00.601Z,7.87
2024-01-05T07:12:29.991Z,6.75
2024-01-05T07:14:58.539Z,6.57
2024-01-05T07:17:27.060Z,7.28
2024-01-05T07:20:08.763Z,7.82
2024-01-05T07:22:44.786Z,7.47
2024-01-05T07:25:14.352Z,9.35
2024-01-05T07:27:42.729Z,26.77
2024-01-05T07:30:11.682Z,47.10
2024-01-05T07:32:40.163Z,22.77
2024-01-05T07:35:12.324Z,10.77
2024-01-05T07:37:47.026Z,6.47
2024-01-05T07:40:16.995Z,6.22
2024-01-05T07:42:45.363Z,7.15
2024-01-05T07:45:13.968Z,7.32
2024-01-05T07:47:42.574Z,8.00
2024-01-05T07:50:11.785Z,6.20
2024-01-05T07:52:40.334Z,9.05
2024-01-05T07:55:10.866Z,7.97
2024-01-05T07:57:41.044Z,6.78
2024-01-05T08:00:10.978Z,6.77
2024-01-05T08:02:39.419Z,7.25
2024-01-05T08:05:10.819Z,9.65
2024-01-05T08:07:39.351Z,7.82
2024-01-05T08:10:08.535Z,7.47
2024-01-05T08:12:37.017Z,7.03
2024-01-05T08:15:07.666Z,8.18
2024-01-05T08:17:38.235Z,10.93
2024-01-05T08:20:12.223Z,10.30
2024-01-05T08:22:46.259Z,9.85
2024-01-05T08:25:15.189Z,9.17
2024-01-05T08:27:43.697Z,10.95
2024-01-05T08:30:25.132Z,10.45
2024-01-05T08:33:11.204Z,6.70
2024-01-05T08:35:39.812Z,9.60
2024-01-05T08:38:08.663Z,9.53
2024-01-05T08:40:37.268Z,15.38
2024-01-05T08:43:15.122Z,13.98
2024-01-05T08:45:44.791Z,10.48
2024-01-05T08:48:15.008Z,6.80
2024-01-05T08:50:43.530Z,7.27
2024-01-05T08:53:12.001Z,6.53
2024-01-05T08:55:42.854Z,8.55
2024-01-05T08:58:15.378Z,8.25
2024-01-05T09:00:45.049Z,7.70
2024-01-05T09:03:16.689Z,8.37
2024-01-05T09:05:46.464Z,6.43
2024-01-05T09:08:14.915Z,4.95
2024-01-05T09:10:43.380Z,5.55
2024-01-05T09:13:12.163Z,5.70
2024-01-05T09:15:40.964Z,4.87
2024-01-05T09:18:10.665Z,6.82
2024-01-05T09:20:40.332Z,5.80
2024-01-05T09:23:10.227Z,6.18
2024-01-05T09:25:40.443Z,8.27
2024-01-05T09:28:10.006Z,5.97
2024-01-05T09:30:38.583Z,5.88
2024-01-05T09:33:07.944Z,5.22
2024-01-05T09:35:37.740Z,27.75
2024-01-05T09:38:06.409Z,14.98
2024-01-05T09:40:35.425Z,12.37
2024-01-05T09:43:04.360Z,5.57
2024-01-05T09:45:33.463Z,4.55
2024-01-05T09:48:03.553Z,5.97
2024-01-05T09:50:32.871Z,5.47
2024-01-05T09:53:02.366Z,5.90
2024-01-05T09:55:30.697Z,6.07
2024-01-05T09:57:59.868Z,5.30
2024-01-05T10:00:29.670Z,5.60
2024-01-05T10:02:59.769Z,5.47
2024-01-05T10:05:28.570Z,5.70
2024-01-05T10:07:57.400Z,5.30
2024-01-05T10:10:48.918Z,7.38
2024-01-05T10:13:17.387Z,4.75
2024-01-05T10:15:56.257Z,5.28
2024-01-05T10:18:26.317Z,13.40
2024-01-05T10:20:56.486Z,9.68
2024-01-05T10:23:30.046Z,11.10
2024-01-05T10:26:18.417Z,6.28
2024-01-05T10:28:50.033Z,6.72
2024-01-05T10:31:20.846Z,7.57
2024-01-05T10:33:53.234Z,5.95
2024-01-05T10:36:21.974Z,7.00
2024-01-05T10:38:50.977Z,7.63
2024-01-05T10:41:22.149Z,5.65
2024-01-05T10:43:50.719Z,6.90
2024-01-05T10:46:19.901Z,8.35
2024-01-05T10:48:48.445Z,5.72
2024-01-05T10:51:20.221Z,7.78
2024-01-05T10:53:49.133Z,7.32
2024-01-05T10:56:21.102Z,7.33
2024-01-05T10:58:50.563Z,8.20
2024-01-05T11:01:21.265Z,7.88
2024-01-05T11:03:52.458Z,6.43
2024-01-05T11:06:21.311Z,7.80
2024-01-05T11:09:04.457Z,7.87
2024-01-05T11:11:48.285Z,10.55
2024-01-05T11:14:32.810Z,8.48
2024-01-05T11:17:22.549Z,10.82
2024-01-05T11:20:05.899Z,8.48
2024-01-05T11:22:38.459Z,9.13
2024-01-05T11:25:08.058Z,9.25
2024-01-05T11:27:51.521Z,8.02
2024-01-05T11:30:46.659Z,6.57
2024-01-05T11:33:50.312Z,6.60
2024-01-05T11:36:53.022Z,9.33
2024-01-05T11:39:42.901Z,9.70
2024-01-05T11:42:14.643Z,6.68
2024-01-05T11:44:44.487Z,7.40
2024-01-05T11:47:50.574Z,10.70
2024-01-05T11:50:34.131Z,16.37
2024-01-05T11:53:25.585Z,5.78
2024-01-05T11:56:14.106Z,10.57
2024-01-05T11:58:45.114Z,16.20
2024-01-05T12:01:17.486Z,6.85
2024-01-05T12:03:46.517Z,6.63
2024-01-05T12:06:15.973Z,8.68
2024-01-05T12:08:44.563Z,6.20
2024-01-05T12:11:13.591Z,9.98
2024-01-05T12:13:42.333Z,15.68
2024-01-05T12:16:11.923Z,5.80
2024-01-05T12:18:56.546Z,9.93
2024-01-05T12:21:25.314Z,10.35
2024-01-05T12:24:17.629Z,6.93
2024-01-05T12:27:12.973Z,7.10
2024-01-05T12:29:46.502Z,7.80
2024-01-05T12:32:15.312Z,8.93
2024-01-05T12:34:44.986Z,10.02
2024-01-05T12:37:15.861Z,7.32
2024-01-05T12:39:45.039Z,8.13
2024-01-05T12:42:14.281Z,7.87
2024-01-05T12:44:46.230Z,10.40
2024-01-05T12:47:18.828Z,9.98
2024-01-05T12:49:48.884Z,9.70
2024-01-05T12:52:19.795Z,7.10
2024-01-05T12:54:48.307Z,8.27
2024-01-05T12:57:23.491Z,6.63
2024-01-05T12:59:51.913Z,8.70
2024-01-05T13:02:20.344Z,8.02
2024-01-05T13:04:49.805Z,8.15
2024-01-05T13:07:18.244Z,8.13
2024-01-05T13:09:46.781Z,50.83
2024-01-05T13:12:15.341Z,42.53
2024-01-05T13:14:45.992Z,16.88
2024-01-05T13:17:14.434Z,9.98
2024-01-05T13:19:44.707Z,7.40
2024-01-05T13:22:15.125Z,7.20
2024-01-05T13:24:46.948Z,9.77
2024-01-05T13:27:15.802Z,8.38
2024-01-05T13:29:45.664Z,7.00
2024-01-05T13:32:14.315Z,10.60
2024-01-05T13:34:43.270Z,9.27
2024-01-05T13:37:11.788Z,10.07
2024-01-05T13:39:43.206Z,8.48
2024-01-05T13:42:12.369Z,8.57
2024-01-05T13:44:40.885Z,8.63
2024-01-05T13:47:09.298Z,6.75
2024-01-05T13:49:37.930Z,7.05
2024-01-05T13:52:09.376Z,8.90
2024-01-05T13:54:38.008Z,10.73
2024-01-05T13:57:07.828Z,8.63
2024-01-05T13:59:36.901Z,10.35
2024-01-05T14:02:06.369Z,8.70
2024-01-05T14:04:34.900Z,9.65
2024-01-05T14:07:03.698Z,8.93
2024-01-05T14:09:32.580Z,10.90
2024-01-05T14:12:01.236Z,8.50
2024-01-05T14:14:30.786Z,8.10
2024-01-05T14:17:05.412Z,6.80
2024-01-05T14:19:38.433Z,10.95
2024-01-05T14:22:07.254Z,8.37
2024-01-05T14:24:34.933Z,11.98
2024-01-05T14:27:06.373Z,8.20
2024-01-05T14:29:36.060Z,9.23
2024-01-05T14:32:04.717Z,13.55
2024-01-05T14:34:33.709Z,13.57
2024-01-05T14:37:11.464Z,7.97
2024-01-05T14:39:39.983Z,7.35
2024-01-05T14:42:08.662Z,6.72
2024-01-05T14:44:38.777Z,7.70
2024-01-05T14:47:07.267Z,11.37
2024-01-05T14:49:35.942Z,8.50
2024-01-05T14:52:04.539Z,5.10
2024-01-05T14:54:32.969Z,4.00
2024-01-05T14:57:01.477Z,5.38
2024-01-05T14:59:31.231Z,3.70
2024-01-05T15:02:03.840Z,7.63
2024-01-05T15:04:32.960Z,5.72
2024-01-05T15:07:01.892Z,3.70
2024-01-05T15:09:43.232Z,5.78
2024-01-05T15:12:12.404Z,6.03
2024-01-05T15:14:40.841Z,5.22
2024-01-05T15:17:11.547Z,14.65
2024-01-05T15:19:41.438Z,12.20
2024-01-05T15:22:10.025Z,8.50
2024-01-05T15:24:38.968Z,5.77
2024-01-05T15:27:07.675Z,5.80
2024-01-05T15:29:36.137Z,7.00
2024-01-05T15:32:09.555Z,6.47
2024-01-05T15:34:45.343Z,5.53
2024-01-05T15:37:14.007Z,4.93
2024-01-05T15:39:45.382Z,5.50
2024-01-05T15:42:14.189Z,5.65
2024-01-05T15:44:43.093Z,4.68
2024-01-05T15:47:11.490Z,6.47
2024-01-05T15:49:41.085Z,7.33
2024-01-05T15:52:09.581Z,5.75
2024-01-05T15:54:38.054Z,5.45
2024-01-05T15:57:06.633Z,5.47
2024-01-05T15:59:36.876Z,5.18
2024-01-05T16:02:05.560Z,7.83
2024-01-05T16:04:35.464Z,6.80
2024-01-05T16:07:05.667Z,7.78
2024-01-05T16:09:34.220Z,6.60
2024-01-05T16:12:04.453Z,6.03
2024-01-05T16:14:33.013Z,6.70
2024-01-05T16:17:01.436Z,8.95
2024-01-05T16:19:29.994Z,6.35
2024-01-05T16:21:58.707Z,6.82
2024-01-05T16:24:28.262Z,6.38
2024-01-05T16:26:56.680Z,7.97
2024-01-05T16:29:25.154Z,6.53
2024-01-05T16:31:53.810Z,9.77
2024-01-05T16:34:22.294Z,8.52
2024-01-05T16:36:50.953Z,7.35
2024-01-05T16:39:19.502Z,7.97
2024-01-05T16:41:49.740Z,7.00
2024-01-05T16:44:18.844Z,6.22
2024-01-05T16:46:47.416Z,6.57
2024-01-05T16:49:15.966Z,6.38
2024-01-05T16:51:44.908Z,6.47
2024-01-05T16:54:14.061Z,5.97
2024-01-05T16:56:47.139Z,5.72
2024-01-05T16:59:19.672Z,7.90
2024-01-05T17:01:48.408Z,7.72
2024-01-05T17:04:17.123Z,8.33
2024-01-05T17:06:50.239Z,8.23
2024-01-05T17:09:19.220Z,8.93
2024-01-05T17:11:47.703Z,8.25
2024-01-05T17:14:16.112Z,6.78
2024-01-05T17:16:49.181Z,8.07
2024-01-05T17:19:17.716Z,6.50
2024-01-05T17:21:48.929Z,7.15
2024-01-05T17:24:19.053Z,7.50
2024-01-05T17:26:47.636Z,8.52
2024-01-05T17:29:16.258Z,8.67
2024-01-05T17:31:44.730Z,66.53
2024-01-05T17:34:14.304Z,25.55
2024-01-05T17:36:43.106Z,30.33
2024-01-05T17:39:11.606Z,20.02
2024-01-05T17:41:40.381Z,15.30
2024-01-05T17:44:08.976Z,11.52
2024-01-05T17:46:39.517Z,9.27
2024-01-05T17:49:08.377Z,9.60
2024-01-05T17:51:39.553Z,9.07
2024-01-05T17:54:08.157Z,9.87
2024-01-05T17:56:37.033Z,10.13
2024-01-05T17:59:05.492Z,10.73
2024-01-05T18:01:34.216Z,10.43
2024-01-05T18:04:03.057Z,13.02
2024-01-05T18:06:31.698Z,10.67
2024-01-05T18:10:45.491Z,12.18
2024-01-05T18:12:22.965Z,9.10
2024-01-05T18:14:51.429Z,10.95
2024-01-05T18:17:25.956Z,12.63
2024-01-05T18:19:57.471Z,11.17
2024-01-05T18:22:26.061Z,11.23
2024-01-05T18:24:58.453Z,13.27
2024-01-05T18:27:36.306Z,14.80
2024-01-05T18:30:05.001Z,11.95
2024-01-05T18:32:34.846Z,11.20
2024-01-05T18:35:03.559Z,12.52
2024-01-05T18:37:40.410Z,15.45
2024-01-05T18:40:15.813Z,10.07
2024-01-05T18:42:52.293Z,11.88
2024-01-05T18:45:20.967Z,11.03
2024-01-05T18:47:49.609Z,9.73
2024-01-05T18:50:18.022Z,9.65
2024-01-05T18:52:46.646Z,11.35
2024-01-05T18:55:17.006Z,8.70
2024-01-05T18:57:55.921Z,9.03
2024-01-05T19:00:31.693Z,9.93
2024-01-05T19:03:06.140Z,8.18
2024-01-05T19:05:34.497Z,8.25
2024-01-05T19:08:03.752Z,11.75
2024-01-05T19:10:37.153Z,7.97
2024-01-05T19:13:08.106Z,9.05
2024-01-05T19:15:36.730Z,10.23
2024-01-05T19:18:05.693Z,10.07
2024-01-05T19:20:38.928Z,17.15
2024-01-05T19:23:08.470Z,13.63
2024-01-05T19:25:37.921Z,13.30
2024-01-05T19:28:08.978Z,9.27
2024-01-05T19:30:40.166Z,10.32
2024-01-05T19:33:12.267Z,9.05
2024-01-05T19:35:40.779Z,10.07
2024-01-05T19:38:11.464Z,10.82
2024-01-05T19:40:55.824Z,12.70
2024-01-05T19:43:26.690Z,9.48
2024-01-05T19:45:56.195Z,9.35
2024-01-05T19:48:28.429Z,12.47
2024-01-05T19:50:57.052Z,12.63
2024-01-05T19:53:25.871Z,12.00
2024-01-05T19:55:58.849Z,11.55
2024-01-05T19:58:27.911Z,14.05
2024-01-05T20:00:56.762Z,13.60
2024-01-05T20:03:27.880Z,9.57
2024-01-05T20:06:07.485Z,13.23
2024-01-05T20:08:36.494Z,11.48
2024-01-05T20:11:09.793Z,10.18
2024-01-05T20:13:41.923Z,11.93
2024-01-05T20:16:12.339Z,33.45
2024-01-05T20:18:43.874Z,22.33
2024-01-05T20:24:26.126Z,33.78
2024-01-05T20:27:01.294Z,15.47
2024-01-05T20:29:29.696Z,10.93
2024-01-05T20:31:58.640Z,14.45
2024-01-05T20:34:35.724Z,11.63
2024-01-05T20:37:04.216Z,14.52
2024-01-05T20:39:35.872Z,43.13
2024-01-05T20:42:08.619Z,37.80
2024-01-05T20:44:40.822Z,17.38
2024-01-05T20:47:09.306Z,22.00
2024-01-05T20:49:37.993Z,15.00
2024-01-05T20:52:09.762Z,14.60
2024-01-05T20:54:38.496Z,12.00
2024-01-05T20:57:08.220Z,16.38
2024-01-05T20:59:37.131Z,87.57
2024-01-05T21:02:05.928Z,69.97
2024-01-05T21:04:41.136Z,22.23
2024-01-05T21:07:34.768Z,29.15
2024-01-05T21:10:05.782Z,17.67
2024-01-05T21:12:35.621Z,16.88
2024-01-05T21:15:04.360Z,13.07
2024-01-05T21:17:32.952Z,15.43
2024-01-05T21:20:01.737Z,14.93
2024-01-05T21:22:30.173Z,14.25
2024-01-05T21:24:58.981Z,87.68
2024-01-05T21:27:27.614Z,72.47
2024-01-05T21:30:08.323Z,20.90
2024-01-05T21:32:43.915Z,59.55
2024-01-05T21:35:14.156Z,50.58
2024-01-05T21:37:42.829Z,22.98
2024-01-05T21:40:11.969Z,20.13
2024-01-05T21:42:42.216Z,47.87
2024-01-05T21:45:12.289Z,49.60
2024-01-05T21:47:41.045Z,21.95
2024-01-05T21:50:13.291Z,57.45
2024-01-05T21:52:41.703Z,41.88
2024-01-05T21:55:10.152Z,31.60
2024-01-05T21:57:38.839Z,27.73
2024-01-05T22:00:12.324Z,21.38
2024-01-05T22:02:40.891Z,22.40
2024-01-05T22:05:09.412Z,24.27
2024-01-05T22:07:38.166Z,43.73
2024-01-05T22:10:10.081Z,26.73
2024-01-05T22:12:38.721Z,22.85
2024-01-05T22:15:10.788Z,20.60
2024-01-05T22:17:40.562Z,20.85
2024-01-05T22:20:10.716Z,19.83
2024-01-05T22:22:39.619Z,16.73
2024-01-05T22:25:08.835Z,16.85
2024-01-05T22:27:37.325Z,18.65
2024-01-05T22:30:06.919Z,18.25
2024-01-05T22:32:35.471Z,17.00
2024-01-05T22:35:05.353Z,18.55
2024-01-05T22:37:34.045Z,21.85
2024-01-05T22:40:04.423Z,16.65
2024-01-05T22:42:33.520Z,18.17
2024-01-05T22:45:02.236Z,17.83
2024-01-05T22:47:30.700Z,16.17
2024-01-05T22:49:59.465Z,15.43
2024-01-05T22:52:29.105Z,13.82
2024-01-05T22:54:57.711Z,15.90
2024-01-05T22:57:27.065Z,14.77
2024-01-05T22:59:55.672Z,16.40
2024-01-05T23:02:24.287Z,20.33
2024-01-05T23:04:52.752Z,14.13
2024-01-05T23:07:21.234Z,16.35
2024-01-05T23:09:51.250Z,14.30
2024-01-05T23:12:21.477Z,13.73
2024-01-05T23:14:50.077Z,16.48
2024-01-05T23:17:18.802Z,16.33
2024-01-05T23:19:47.615Z,17.23
2024-01-05T23:22:16.188Z,17.27
2024-01-05T23:24:44.662Z,16.13
2024-01-05T23:27:14.092Z,15.90
2024-01-05T23:29:43.046Z,16.85
2024-01-05T23:32:11.549Z,16.27
2024-01-05T23:34:40.629Z,14.83
2024-01-05T23:37:09.152Z,13.85
2024-01-05T23:39:40.488Z,15.20
2024-01-05T23:42:09.320Z,13.93
2024-01-05T23:44:39.066Z,14.25
2024-01-05T23:47:07.726Z,15.63
2024-01-05T23:49:36.240Z,15.38
2024-01-05T23:52:04.780Z,15.80
2024-01-05T23:54:33.304Z,15.57
2024-01-05T23:57:01.878Z,15.38
2024-01-05T23:59:30.361Z,14.17
